sensor_id;sensor_type;location;lat;lon;timestamp;P1;durP1;ratioP1;P2;durP2;ratioP2
72645;SDS011;60687;53.876;10.674;2024-02-16T00:02:48;11.53;;;4.73;;
72645;SDS011;60687;53.876;10.674;2024-02-16T00:12:56;9.93;;;4.45;;
72645;SDS011;60687;53.876;10.674;2024-02-16T00:23:06;11.30;;;5.00;;
72645;SDS011;60687;53.876;10.674;2024-02-16T00:33:20;11.43;;;4.50;;
72645;SDS011;60687;53.876;10.674;2024-02-16T00:43:28;9.15;;;3.70;;
72645;SDS011;60687;53.876;10.674;2024-02-16T00:53:36;9.60;;;3.90;;
72645;SDS011;60687;53.876;10.674;2024-02-16T01:03:53;10.30;;;4.47;;
72645;SDS011;60687;53.876;10.674;2024-02-16T01:14:04;11.05;;;4.03;;
72645;SDS011;60687;53.876;10.674;2024-02-16T01:24:17;8.95;;;3.63;;
72645;SDS011;60687;53.876;10.674;2024-02-16T01:34:23;8.70;;;3.80;;
72645;SDS011;60687;53.876;10.674;2024-02-16T01:44:27;11.57;;;4.00;;
72645;SDS011;60687;53.876;10.674;2024-02-16T01:54:34;9.40;;;3.90;;
72645;SDS011;60687;53.876;10.674;2024-02-16T02:04:42;9.73;;;4.03;;
72645;SDS011;60687;53.876;10.674;2024-02-16T02:14:45;8.93;;;4.03;;
72645;SDS011;60687;53.876;10.674;2024-02-16T02:24:52;8.57;;;3.67;;
72645;SDS011;60687;53.876;10.674;2024-02-16T02:35:05;7.53;;;3.60;;
72645;SDS011;60687;53.876;10.674;2024-02-16T02:45:13;8.90;;;3.60;;
72645;SDS011;60687;53.876;10.674;2024-02-16T02:55:16;8.20;;;3.45;;
72645;SDS011;60687;53.876;10.674;2024-02-16T03:05:21;8.90;;;3.58;;
72645;SDS011;60687;53.876;10.674;2024-02-16T03:15:24;8.03;;;3.53;;
72645;SDS011;60687;53.876;10.674;2024-02-16T03:25:31;10.00;;;3.83;;
72645;SDS011;60687;53.876;10.674;2024-02-16T03:35:34;10.05;;;4.18;;
72645;SDS011;60687;53.876;10.674;2024-02-16T03:45:39;10.60;;;4.17;;
72645;SDS011;60687;53.876;10.674;2024-02-16T03:55:43;9.67;;;4.23;;
72645;SDS011;60687;53.876;10.674;2024-02-16T04:05:47;9.32;;;3.78;;
72645;SDS011;60687;53.876;10.674;2024-02-16T04:15:50;9.63;;;3.70;;
72645;SDS011;60687;53.876;10.674;2024-02-16T04:25:55;9.40;;;4.00;;
72645;SDS011;60687;53.876;10.674;2024-02-16T04:35:59;8.10;;;3.70;;
72645;SDS011;60687;53.876;10.674;2024-02-16T04:46:02;8.93;;;3.38;;
72645;SDS011;60687;53.876;10.674;2024-02-16T04:56:05;8.97;;;3.73;;
72645;SDS011;60687;53.876;10.674;2024-02-16T05:06:10;8.47;;;3.50;;
72645;SDS011;60687;53.876;10.674;2024-02-16T05:16:13;7.68;;;3.40;;
72645;SDS011;60687;53.876;10.674;2024-02-16T05:26:18;8.87;;;3.50;;
72645;SDS011;60687;53.876;10.674;2024-02-16T05:36:21;8.10;;;3.07;;
72645;SDS011;60687;53.876;10.674;2024-02-16T05:46:29;8.32;;;3.50;;
72645;SDS011;60687;53.876;10.674;2024-02-16T05:56:32;8.47;;;2.57;;
72645;SDS011;60687;53.876;10.674;2024-02-16T06:06:38;7.90;;;2.90;;
72645;SDS011;60687;53.876;10.674;2024-02-16T06:16:43;7.65;;;3.22;;
72645;SDS011;60687;53.876;10.674;2024-02-16T06:26:48;8.23;;;3.13;;
72645;SDS011;60687;53.876;10.674;2024-02-16T06:36:52;8.47;;;3.40;;
72645;SDS011;60687;53.876;10.674;2024-02-16T06:46:56;7.43;;;2.67;;
72645;SDS011;60687;53.876;10.674;2024-02-16T06:56:58;9.05;;;3.30;;
72645;SDS011;60687;53.876;10.674;2024-02-16T07:07:03;7.07;;;2.97;;
72645;SDS011;60687;53.876;10.674;2024-02-16T07:17:08;7.43;;;3.10;;
72645;SDS011;60687;53.876;10.674;2024-02-16T07:27:13;8.38;;;3.30;;
72645;SDS011;60687;53.876;10.674;2024-02-16T07:37:18;7.63;;;3.30;;
72645;SDS011;60687;53.876;10.674;2024-02-16T07:47:22;6.90;;;3.17;;
72645;SDS011;60687;53.876;10.674;2024-02-16T07:57:24;9.77;;;2.78;;
72645;SDS011;60687;53.876;10.674;2024-02-16T08:07:28;8.68;;;3.15;;
72645;SDS011;60687;53.876;10.674;2024-02-16T08:17:31;7.87;;;3.20;;
72645;SDS011;60687;53.876;10.674;2024-02-16T08:27:35;8.33;;;2.50;;
72645;SDS011;60687;53.876;10.674;2024-02-16T08:37:39;7.72;;;2.55;;
72645;SDS011;60687;53.876;10.674;2024-02-16T08:47:46;8.50;;;3.03;;
72645;SDS011;60687;53.876;10.674;2024-02-16T08:57:48;6.43;;;2.23;;
72645;SDS011;60687;53.876;10.674;2024-02-16T09:07:52;7.38;;;2.58;;
72645;SDS011;60687;53.876;10.674;2024-02-16T09:17:58;6.83;;;2.30;;
72645;SDS011;60687;53.876;10.674;2024-02-16T09:28:11;8.53;;;2.20;;
72645;SDS011;60687;53.876;10.674;2024-02-16T09:38:18;7.47;;;2.42;;
72645;SDS011;60687;53.876;10.674;2024-02-16T09:48:37;6.35;;;2.55;;
72645;SDS011;60687;53.876;10.674;2024-02-16T09:58:50;7.17;;;2.37;;
72645;SDS011;60687;53.876;10.674;2024-02-16T10:08:56;6.27;;;2.70;;
72645;SDS011;60687;53.876;10.674;2024-02-16T10:19:03;7.50;;;2.10;;
72645;SDS011;60687;53.876;10.674;2024-02-16T10:29:18;7.20;;;2.30;;
72645;SDS011;60687;53.876;10.674;2024-02-16T10:39:25;5.63;;;1.87;;
72645;SDS011;60687;53.876;10.674;2024-02-16T10:49:58;5.93;;;2.40;;
72645;SDS011;60687;53.876;10.674;2024-02-16T11:00:19;7.13;;;2.20;;
72645;SDS011;60687;53.876;10.674;2024-02-16T11:10:24;8.07;;;1.93;;
72645;SDS011;60687;53.876;10.674;2024-02-16T11:20:39;8.32;;;2.42;;
72645;SDS011;60687;53.876;10.674;2024-02-16T11:30:44;5.32;;;1.73;;
72645;SDS011;60687;53.876;10.674;2024-02-16T11:40:55;6.73;;;1.83;;
72645;SDS011;60687;53.876;10.674;2024-02-16T11:51:03;7.60;;;2.27;;
72645;SDS011;60687;53.876;10.674;2024-02-16T12:01:10;6.20;;;2.03;;
72645;SDS011;60687;53.876;10.674;2024-02-16T12:11:20;6.40;;;2.10;;
72645;SDS011;60687;53.876;10.674;2024-02-16T12:21:30;6.30;;;2.20;;
72645;SDS011;60687;53.876;10.674;2024-02-16T12:31:39;7.03;;;1.80;;
72645;SDS011;60687;53.876;10.674;2024-02-16T12:41:52;7.47;;;2.87;;
72645;SDS011;60687;53.876;10.674;2024-02-16T13:02:42;8.23;;;2.28;;
72645;SDS011;60687;53.876;10.674;2024-02-16T13:12:45;9.43;;;2.42;;
72645;SDS011;60687;53.876;10.674;2024-02-16T13:22:50;8.30;;;2.43;;
72645;SDS011;60687;53.876;10.674;2024-02-16T13:32:56;7.73;;;3.00;;
72645;SDS011;60687;53.876;10.674;2024-02-16T13:43:12;8.77;;;2.60;;
72645;SDS011;60687;53.876;10.674;2024-02-16T13:53:23;8.50;;;2.70;;
72645;SDS011;60687;53.876;10.674;2024-02-16T14:03:27;8.30;;;3.00;;
72645;SDS011;60687;53.876;10.674;2024-02-16T14:13:30;9.88;;;3.42;;
72645;SDS011;60687;53.876;10.674;2024-02-16T14:23:38;8.60;;;2.83;;
72645;SDS011;60687;53.876;10.674;2024-02-16T14:33:42;10.77;;;3.53;;
72645;SDS011;60687;53.876;10.674;2024-02-16T14:43:46;10.88;;;3.58;;
72645;SDS011;60687;53.876;10.674;2024-02-16T14:53:52;9.52;;;3.63;;
72645;SDS011;60687;53.876;10.674;2024-02-16T15:03:59;8.03;;;2.90;;
72645;SDS011;60687;53.876;10.674;2024-02-16T15:14:09;10.03;;;4.20;;
72645;SDS011;60687;53.876;10.674;2024-02-16T15:24:36;10.45;;;4.85;;
72645;SDS011;60687;53.876;10.674;2024-02-16T15:34:40;10.27;;;5.03;;
72645;SDS011;60687;53.876;10.674;2024-02-16T15:44:52;11.90;;;6.00;;
72645;SDS011;60687;53.876;10.674;2024-02-16T15:54:54;12.70;;;5.85;;
72645;SDS011;60687;53.876;10.674;2024-02-16T16:04:59;11.67;;;6.30;;
72645;SDS011;60687;53.876;10.674;2024-02-16T16:15:10;10.83;;;5.83;;
72645;SDS011;60687;53.876;10.674;2024-02-16T16:25:24;10.68;;;6.13;;
72645;SDS011;60687;53.876;10.674;2024-02-16T16:35:46;10.98;;;5.90;;
72645;SDS011;60687;53.876;10.674;2024-02-16T16:45:57;9.80;;;5.07;;
72645;SDS011;60687;53.876;10.674;2024-02-16T16:55:59;6.93;;;2.77;;
72645;SDS011;60687;53.876;10.674;2024-02-16T17:06:06;7.10;;;2.90;;
72645;SDS011;60687;53.876;10.674;2024-02-16T17:16:13;7.10;;;2.87;;
72645;SDS011;60687;53.876;10.674;2024-02-16T17:26:48;8.70;;;3.87;;
72645;SDS011;60687;53.876;10.674;2024-02-16T17:36:52;9.45;;;4.35;;
72645;SDS011;60687;53.876;10.674;2024-02-16T17:46:59;6.63;;;2.60;;
72645;SDS011;60687;53.876;10.674;2024-02-16T17:57:11;6.50;;;2.67;;
72645;SDS011;60687;53.876;10.674;2024-02-16T18:07:17;6.70;;;2.92;;
72645;SDS011;60687;53.876;10.674;2024-02-16T18:17:20;7.10;;;3.00;;
72645;SDS011;60687;53.876;10.674;2024-02-16T18:27:27;7.30;;;3.37;;
72645;SDS011;60687;53.876;10.674;2024-02-16T18:37:35;7.60;;;3.87;;
72645;SDS011;60687;53.876;10.674;2024-02-16T18:47:42;8.82;;;4.60;;
72645;SDS011;60687;53.876;10.674;2024-02-16T18:57:55;9.83;;;5.03;;
72645;SDS011;60687;53.876;10.674;2024-02-16T19:08:11;11.23;;;5.47;;
72645;SDS011;60687;53.876;10.674;2024-02-16T19:18:25;13.68;;;6.13;;
72645;SDS011;60687;53.876;10.674;2024-02-16T19:28:42;12.17;;;6.20;;
72645;SDS011;60687;53.876;10.674;2024-02-16T19:38:44;12.80;;;6.90;;
72645;SDS011;60687;53.876;10.674;2024-02-16T19:48:48;13.73;;;6.32;;
72645;SDS011;60687;53.876;10.674;2024-02-16T19:58:52;12.02;;;6.20;;
72645;SDS011;60687;53.876;10.674;2024-02-16T20:08:58;9.97;;;5.20;;
72645;SDS011;60687;53.876;10.674;2024-02-16T20:19:01;9.67;;;4.93;;
72645;SDS011;60687;53.876;10.674;2024-02-16T20:29:05;10.00;;;4.90;;
72645;SDS011;60687;53.876;10.674;2024-02-16T20:39:09;10.13;;;4.53;;
72645;SDS011;60687;53.876;10.674;2024-02-16T20:49:15;10.27;;;5.07;;
72645;SDS011;60687;53.876;10.674;2024-02-16T20:59:21;9.93;;;4.40;;
72645;SDS011;60687;53.876;10.674;2024-02-16T21:09:26;11.70;;;5.10;;
72645;SDS011;60687;53.876;10.674;2024-02-16T21:19:33;9.97;;;4.70;;
72645;SDS011;60687;53.876;10.674;2024-02-16T21:29:45;11.63;;;4.65;;
72645;SDS011;60687;53.876;10.674;2024-02-16T21:39:52;10.60;;;4.80;;
72645;SDS011;60687;53.876;10.674;2024-02-16T21:50:01;13.47;;;5.80;;
72645;SDS011;60687;53.876;10.674;2024-02-16T22:00:05;11.07;;;4.90;;
72645;SDS011;60687;53.876;10.674;2024-02-16T22:10:11;13.10;;;5.85;;
72645;SDS011;60687;53.876;10.674;2024-02-16T22:20:16;12.77;;;5.50;;
72645;SDS011;60687;53.876;10.674;2024-02-16T22:40:47;13.13;;;5.30;;
72645;SDS011;60687;53.876;10.674;2024-02-16T22:50:51;13.73;;;5.83;;
72645;SDS011;60687;53.876;10.674;2024-02-16T23:00:54;11.43;;;4.77;;
72645;SDS011;60687;53.876;10.674;2024-02-16T23:11:02;11.52;;;5.18;;
72645;SDS011;60687;53.876;10.674;2024-02-16T23:21:05;10.60;;;4.88;;
72645;SDS011;60687;53.876;10.674;2024-02-16T23:31:09;11.87;;;4.97;;
72645;SDS011;60687;53.876;10.674;2024-02-16T23:41:15;12.23;;;4.70;;
72645;SDS011;60687;53.876;10.674;2024-02-16T23:51:19;10.13;;;4.60;;
